Time;durP1;ratioP1;P1;durP2;ratioP2;P2;SDS_P1;SDS_P2;PMS_P1;PMS_P2;Temp;Humidity;BMP_temperature;BMP_pressure;BME280_temperature;BME280_humidity;BME280_pressure;Samples;Min_cycle;Max_cycle;Signal;HPM_P1;HPM_P2
2021/04/30 00:01:23;;;;;;;17.23;7.25;;;;;;;15.84;65.28;99744.28;5099119;28;20031;-74
2021/04/30 00:03:49;;;;;;;11.82;6.80;;;;;;;15.97;64.32;99755.03;5101402;28;20092;-74
2021/04/30 00:06:14;;;;;;;12.85;7.22;;;;;;;16.02;64.57;99754.44;5099549;28;20020;-74
2021/04/30 00:08:40;;;;;;;11.10;6.47;;;;;;;16.03;64.09;99745.41;5101399;28;20051;-74
2021/04/30 00:11:09;;;;;;;14.93;7.15;;;;;;;16.09;63.82;99756.13;5103288;28;20085;-74
2021/04/30 00:13:38;;;;;;;10.82;6.60;;;;;;;16.16;63.10;99748.97;5102864;28;20036;-74
2021/04/30 00:16:05;;;;;;;18.55;7.53;;;;;;;16.18;63.22;99743.44;5116198;28;20059;-74
2021/04/30 00:18:31;;;;;;;14.98;7.80;;;;;;;16.19;62.93;99739.75;5110826;28;20039;-74
2021/04/30 00:20:58;;;;;;;15.88;7.30;;;;;;;16.06;63.37;99740.50;5103599;28;20246;-76
2021/04/30 00:23:26;;;;;;;13.30;7.47;;;;;;;16.11;63.17;99750.59;5099616;28;20333;-76
2021/04/30 00:25:53;;;;;;;15.52;7.38;;;;;;;16.09;63.56;99742.78;5099806;28;20067;-74
2021/04/30 00:28:20;;;;;;;15.63;7.55;;;;;;;15.96;63.29;99722.16;5100330;28;20032;-74
2021/04/30 00:30:46;;;;;;;14.27;7.07;;;;;;;15.78;64.15;99723.69;5100724;28;20353;-74
2021/04/30 00:33:12;;;;;;;19.98;7.78;;;;;;;15.48;64.97;99709.69;5100382;28;20129;-76
2021/04/30 00:35:37;;;;;;;14.77;7.90;;;;;;;15.26;65.79;99715.06;5100364;28;20329;-76
2021/04/30 00:38:03;;;;;;;14.90;7.55;;;;;;;14.92;66.74;99704.31;5100041;28;20031;-74
2021/04/30 00:40:28;;;;;;;13.32;7.25;;;;;;;14.61;67.88;99709.94;5100526;28;20096;-74
2021/04/30 00:42:55;;;;;;;13.27;8.02;;;;;;;14.50;68.27;99703.25;5100743;28;20056;-74
2021/04/30 00:45:23;;;;;;;14.52;8.18;;;;;;;14.33;68.54;99705.28;5103747;28;20035;-74
2021/04/30 00:47:49;;;;;;;20.88;8.70;;;;;;;14.50;68.58;99710.41;5107206;28;20035;-74
2021/04/30 00:50:15;;;;;;;15.68;7.75;;;;;;;14.75;67.45;99721.56;5115380;28;20036;-74
2021/04/30 00:52:40;;;;;;;15.02;7.30;;;;;;;14.84;67.04;99721.25;5115998;28;20087;-74
2021/04/30 00:55:10;;;;;;;15.00;8.02;;;;;;;15.05;66.34;99724.94;5108314;28;20309;-74
2021/04/30 00:57:36;;;;;;;13.80;7.47;;;;;;;15.16;65.46;99724.41;5122616;28;20222;-74
2021/04/30 01:00:05;;;;;;;18.25;7.47;;;;;;;15.13;64.75;99695.47;5119014;28;20081;-74
2021/04/30 01:02:30;;;;;;;12.70;7.20;;;;;;;15.30;64.68;99728.84;5106430;28;20020;-74
2021/04/30 01:04:57;;;;;;;11.48;7.18;;;;;;;15.36;64.59;99729.91;5119159;28;20051;-74
2021/04/30 01:07:23;;;;;;;14.98;7.20;;;;;;;15.45;64.08;99731.41;5118724;28;20036;-74
2021/04/30 01:09:48;;;;;;;13.82;7.32;;;;;;;15.47;64.09;99732.88;5119422;28;20086;-76
2021/04/30 01:12:14;;;;;;;13.38;6.85;;;;;;;15.44;63.48;99738.59;5115423;28;20310;-76
2021/04/30 01:14:40;;;;;;;16.27;8.02;;;;;;;15.43;63.33;99744.97;5120136;28;20237;-74
2021/04/30 01:17:05;;;;;;;15.85;7.63;;;;;;;15.41;63.71;99744.31;5114482;28;20032;-74
2021/04/30 01:19:31;;;;;;;11.65;7.35;;;;;;;15.39;63.53;99748.19;5113946;28;20036;-74
2021/04/30 01:21:58;;;;;;;13.27;6.90;;;;;;;15.44;63.82;99751.13;5116690;28;20235;-74
2021/04/30 01:24:24;;;;;;;12.35;7.30;;;;;;;15.50;63.61;99756.50;5120314;28;20035;-74
2021/04/30 01:26:50;;;;;;;14.18;6.97;;;;;;;15.57;63.61;99756.56;5117615;28;20023;-74
2021/04/30 01:29:16;;;;;;;11.40;7.55;;;;;;;15.61;63.48;99756.03;5116465;28;20329;-74
2021/04/30 01:31:43;;;;;;;12.80;7.10;;;;;;;15.51;63.75;99747.47;5104393;28;20044;-74
2021/04/30 01:34:09;;;;;;;12.65;7.05;;;;;;;15.66;63.91;99762.63;5102535;28;20237;-74
2021/04/30 01:36:34;;;;;;;13.75;7.30;;;;;;;15.69;63.51;99765.75;5103557;28;20027;-74
2021/04/30 01:39:05;;;;;;;12.32;7.35;;;;;;;15.68;62.98;99782.78;5104665;28;20026;-74
2021/04/30 01:41:31;;;;;;;17.13;7.93;;;;;;;15.63;63.94;99763.84;5102915;28;20047;-74
2021/04/30 01:43:56;;;;;;;11.88;7.43;;;;;;;15.70;64.02;99769.25;5103480;28;20061;-74
2021/04/30 01:46:22;;;;;;;13.07;7.88;;;;;;;15.73;63.13;99776.84;5103380;28;20138;-74
2021/04/30 01:48:47;;;;;;;13.02;8.23;;;;;;;15.68;63.82;99790.78;5103365;28;20036;-76
2021/04/30 01:51:13;;;;;;;18.27;8.65;;;;;;;15.66;63.51;99784.00;5104318;28;20047;-76
2021/04/30 01:53:39;;;;;;;19.85;9.02;;;;;;;15.69;63.42;99789.75;5103421;28;20320;-76
2021/04/30 01:56:06;;;;;;;13.57;8.35;;;;;;;15.70;63.57;99787.91;5101993;28;20040;-74
2021/04/30 01:58:32;;;;;;;13.05;8.45;;;;;;;15.67;63.90;99775.78;5103026;28;20031;-74
2021/04/30 02:00:58;;;;;;;13.55;7.88;;;;;;;15.76;64.09;99784.47;5102519;28;20110;-74
2021/04/30 02:03:25;;;;;;;12.13;7.72;;;;;;;15.72;64.01;99765.34;5246537;22;20336;-76
2021/04/30 02:05:51;;;;;;;16.02;8.85;;;;;;;15.57;64.13;99744.06;5064129;28;20333;-76
2021/04/30 02:08:17;;;;;;;16.15;9.32;;;;;;;15.64;64.33;99766.31;5063720;28;20100;-78
2021/04/30 02:10:45;;;;;;;18.48;8.90;;;;;;;15.61;64.98;99773.91;5064274;28;20028;-76
2021/04/30 02:13:11;;;;;;;14.18;8.82;;;;;;;15.60;65.05;99773.06;5064005;28;20043;-76
2021/04/30 02:15:39;;;;;;;15.57;9.00;;;;;;;15.62;65.42;99770.22;5064306;28;20357;-77
2021/04/30 02:18:05;;;;;;;15.80;9.20;;;;;;;15.64;65.44;99781.50;5062332;28;20037;-75
2021/04/30 02:20:30;;;;;;;23.45;9.38;;;;;;;15.67;65.08;99777.63;5063949;28;20226;-78
2021/04/30 02:22:57;;;;;;;23.80;9.80;;;;;;;15.66;64.77;99773.31;5063895;28;20033;-78
2021/04/30 02:25:23;;;;;;;18.60;9.18;;;;;;;15.57;65.14;99768.09;5063931;28;20037;-77
2021/04/30 02:27:50;;;;;;;20.00;9.15;;;;;;;15.74;64.89;99791.84;5062535;28;20064;-77
2021/04/30 02:30:17;;;;;;;15.25;8.77;;;;;;;15.70;64.51;99779.91;5063892;28;20225;-75
2021/04/30 02:32:43;;;;;;;26.67;9.90;;;;;;;15.76;64.21;99782.63;5063417;28;20032;-77
2021/04/30 02:35:14;;;;;;;17.02;9.10;;;;;;;15.68;64.38;99758.75;5063740;28;20036;-78
2021/04/30 02:37:40;;;;;;;17.33;8.52;;;;;;;15.73;64.55;99776.84;5063683;28;20250;-75
2021/04/30 02:40:09;;;;;;;17.25;8.32;;;;;;;15.85;64.40;99788.66;5063551;28;20039;-77
2021/04/30 02:42:34;;;;;;;14.43;8.88;;;;;;;15.79;64.22;99771.56;5063523;28;20032;-75
2021/04/30 02:45:01;;;;;;;14.60;8.35;;;;;;;15.98;63.34;99793.25;5059121;28;20375;-77
2021/04/30 02:47:32;;;;;;;16.40;8.32;;;;;;;15.92;63.70;99789.50;5063417;28;20060;-75
2021/04/30 02:50:06;;;;;;;20.52;9.02;;;;;;;15.95;63.75;99795.28;5059437;28;20043;-76
2021/04/30 02:52:32;;;;;;;24.40;8.95;;;;;;;15.92;63.61;99789.50;5055767;28;20032;-75
2021/04/30 02:54:57;;;;;;;17.70;8.52;;;;;;;15.93;64.04;99796.50;5075111;28;20028;-78
2021/04/30 02:57:24;;;;;;;17.70;8.80;;;;;;;15.84;64.18;99790.50;5059580;28;20095;-77
2021/04/30 02:59:50;;;;;;;18.20;9.80;;;;;;;15.78;64.36;99793.13;5068779;28;20025;-75
2021/04/30 03:02:16;;;;;;;12.93;8.13;;;;;;;15.78;64.47;99793.94;5059045;28;20044;-76
2021/04/30 03:04:41;;;;;;;15.02;8.95;;;;;;;15.83;64.16;99799.53;5057494;28;20037;-77
2021/04/30 03:07:08;;;;;;;21.55;9.35;;;;;;;15.86;64.28;99795.63;5060898;28;20036;-77
2021/04/30 03:09:33;;;;;;;13.48;8.15;;;;;;;15.76;64.72;99782.63;5062175;28;20077;-77
2021/04/30 03:11:59;;;;;;;16.17;8.68;;;;;;;15.89;64.96;99806.75;5061604;28;20297;-76
2021/04/30 03:14:24;;;;;;;17.00;8.55;;;;;;;15.68;64.60;99773.94;5062542;28;20050;-77
2021/04/30 03:16:50;;;;;;;22.75;9.02;;;;;;;15.85;64.49;99804.66;5059817;28;20385;-77
2021/04/30 03:19:16;;;;;;;14.23;8.45;;;;;;;15.93;64.36;99817.88;5059551;28;20044;-76
2021/04/30 03:21:42;;;;;;;17.95;8.68;;;;;;;15.88;64.43;99809.63;5060450;28;20037;-77
2021/04/30 03:24:08;;;;;;;17.95;9.30;;;;;;;15.89;65.13;99824.63;5057681;28;20045;-78
2021/04/30 03:26:33;;;;;;;17.88;9.52;;;;;;;15.81;64.69;99812.25;5056921;28;20021;-76
2021/04/30 03:29:00;;;;;;;18.20;9.57;;;;;;;15.84;64.89;99824.38;5059751;28;20041;-76
2021/04/30 03:31:26;;;;;;;17.63;9.07;;;;;;;15.84;64.98;99835.06;5058888;28;20348;-76
2021/04/30 03:33:51;;;;;;;23.13;9.65;;;;;;;15.86;64.85;99836.50;5057719;28;20060;-78
2021/04/30 03:36:17;;;;;;;17.35;9.70;;;;;;;15.85;64.40;99836.72;5060837;28;20051;-77
2021/04/30 03:38:42;;;;;;;18.48;9.38;;;;;;;15.90;64.59;99824.44;5058825;28;20041;-76
2021/04/30 03:41:07;;;;;;;18.33;8.75;;;;;;;15.86;64.44;99819.66;5059579;28;20136;-76
2021/04/30 03:43:33;;;;;;;21.42;9.38;;;;;;;15.74;65.80;99831.91;5059839;28;20196;-75
2021/04/30 03:45:59;;;;;;;23.23;10.93;;;;;;;15.60;65.92;99829.13;5062155;28;20040;-76
2021/04/30 03:48:27;;;;;;;20.90;10.70;;;;;;;15.46;66.29;99829.13;5059132;28;20261;-74
2021/04/30 03:50:52;;;;;;;16.83;9.32;;;;;;;15.38;67.23;99822.09;5059819;28;20048;-77
2021/04/30 03:53:18;;;;;;;19.05;9.13;;;;;;;15.36;68.37;99825.97;5060381;28;20310;-77
2021/04/30 03:55:44;;;;;;;14.63;8.57;;;;;;;15.40;67.96;99825.38;5056637;28;20221;-75
2021/04/30 03:58:09;;;;;;;18.15;9.25;;;;;;;15.49;67.76;99826.91;5058413;28;20210;-77
2021/04/30 04:00:35;;;;;;;22.23;9.07;;;;;;;15.43;68.22;99821.50;5057973;28;20222;-76
2021/04/30 04:03:00;;;;;;;16.55;8.77;;;;;;;15.42;68.54;99833.19;5058204;28;20033;-77
2021/04/30 04:05:26;;;;;;;18.70;10.02;;;;;;;15.14;69.47;99828.63;5057351;28;20064;-75
2021/04/30 04:07:51;;;;;;;17.27;9.15;;;;;;;14.97;70.74;99827.22;5058021;28;20033;-76
2021/04/30 04:10:17;;;;;;;20.00;9.68;;;;;;;15.04;70.82;99840.63;5059147;28;20301;-75
2021/04/30 04:12:42;;;;;;;18.88;10.73;;;;;;;15.07;71.05;99834.91;5061575;28;20032;-78
2021/04/30 04:15:08;;;;;;;16.42;9.63;;;;;;;15.00;71.77;99842.81;5060369;28;20111;-78
2021/04/30 04:17:35;;;;;;;19.23;10.23;;;;;;;15.07;71.06;99843.72;5056735;28;20024;-78
2021/04/30 04:20:02;;;;;;;20.88;10.88;;;;;;;15.11;70.68;99849.50;5059433;28;20067;-77
2021/04/30 04:22:28;;;;;;;15.50;10.63;;;;;;;15.02;71.00;99851.47;5057211;28;20195;-75
2021/04/30 04:24:54;;;;;;;23.50;10.13;;;;;;;15.15;70.85;99859.63;5058208;28;20123;-78
2021/04/30 04:27:19;;;;;;;19.67;11.40;;;;;;;15.19;70.93;99850.22;5059332;28;20124;-77
2021/04/30 04:29:45;;;;;;;18.13;11.40;;;;;;;15.28;70.33;99859.75;5057580;28;20123;-78
2021/04/30 04:32:11;;;;;;;19.42;11.15;;;;;;;15.43;69.83;99870.38;5040173;28;20026;-76
2021/04/30 04:34:37;;;;;;;19.08;11.05;;;;;;;15.50;69.01;99849.09;5050866;28;20306;-78
2021/04/30 04:37:03;;;;;;;18.83;11.52;;;;;;;15.84;68.75;99869.78;5058650;28;20043;-77
2021/04/30 04:39:32;;;;;;;20.13;11.52;;;;;;;15.94;68.33;99865.75;5058270;28;20028;-74
2021/04/30 04:41:59;;;;;;;19.63;10.90;;;;;;;16.09;67.06;99860.31;5058250;28;20191;-76
2021/04/30 04:44:24;;;;;;;20.95;10.65;;;;;;;16.37;66.10;99868.31;5058936;28;20324;-76
2021/04/30 04:46:50;;;;;;;20.77;9.95;;;;;;;16.63;62.62;99882.84;5058823;28;20045;-75
2021/04/30 04:49:15;;;;;;;21.20;10.13;;;;;;;16.81;61.87;99876.00;5056486;28;20400;-77
2021/04/30 04:51:41;;;;;;;21.17;10.68;;;;;;;16.99;62.29;99886.16;5060604;28;20088;-77
2021/04/30 04:54:06;;;;;;;15.05;9.43;;;;;;;17.20;59.65;99895.88;5058372;28;20666;-78
2021/04/30 04:56:32;;;;;;;17.73;9.50;;;;;;;17.38;59.94;99896.16;5057721;28;20037;-78
2021/04/30 04:58:59;;;;;;;18.80;10.27;;;;;;;17.60;58.80;99912.88;5074167;28;20020;-78
2021/04/30 05:01:25;;;;;;;17.25;9.48;;;;;;;17.71;58.16;99893.59;5059492;28;20081;-78
2021/04/30 05:03:51;;;;;;;17.42;9.70;;;;;;;17.82;58.59;99894.81;5059073;28;20041;-78
2021/04/30 05:06:16;;;;;;;21.15;10.65;;;;;;;17.73;59.61;99893.38;5059510;28;20020;-75
2021/04/30 05:08:42;;;;;;;20.17;10.20;;;;;;;17.62;59.95;99899.28;5058207;28;20085;-75
2021/04/30 05:11:08;;;;;;;18.77;9.75;;;;;;;17.38;60.51;99898.81;5058723;28;20353;-76
2021/04/30 05:13:34;;;;;;;19.55;11.13;;;;;;;17.20;61.67;99901.25;5057613;28;20028;-73
2021/04/30 05:16:01;;;;;;;25.77;10.23;;;;;;;17.19;61.43;99913.78;5058377;28;20063;-72
2021/04/30 05:18:27;;;;;;;20.25;10.75;;;;;;;17.30;60.91;99919.59;5060036;28;20104;-72
2021/04/30 05:20:54;;;;;;;18.35;9.57;;;;;;;17.60;60.10;99920.91;5057181;28;20070;-74
2021/04/30 05:23:20;;;;;;;19.95;10.00;;;;;;;17.96;59.12;99907.19;5057042;28;20037;-73
2021/04/30 05:25:48;;;;;;;17.35;9.77;;;;;;;18.21;58.96;99918.13;5058294;28;20286;-76
2021/04/30 05:28:14;;;;;;;16.58;8.63;;;;;;;18.77;57.26;99915.81;5058385;28;20311;-76
2021/04/30 05:30:39;;;;;;;15.73;9.38;;;;;;;19.25;55.70;99931.50;5071122;28;20067;-73
2021/04/30 05:33:05;;;;;;;15.15;8.73;;;;;;;19.70;54.12;99942.25;5062092;28;20311;-76
2021/04/30 05:35:30;;;;;;;17.63;8.52;;;;;;;20.05;51.52;99934.56;5061666;28;20028;-75
2021/04/30 05:37:56;;;;;;;14.02;7.93;;;;;;;20.18;50.91;99934.47;5062445;28;20215;-78
2021/04/30 05:40:22;;;;;;;15.85;8.65;;;;;;;20.52;49.50;99935.84;5060820;28;20033;-78
2021/04/30 05:42:48;;;;;;;18.45;8.20;;;;;;;20.84;49.15;99927.66;5060501;28;20028;-76
2021/04/30 05:45:14;;;;;;;16.02;8.65;;;;;;;21.16;48.12;99931.84;5062393;28;20051;-77
2021/04/30 05:47:39;;;;;;;15.07;8.23;;;;;;;21.53;47.94;99916.44;5059683;28;20082;-78
2021/04/30 05:50:06;;;;;;;14.27;8.48;;;;;;;21.82;47.10;99914.78;5061026;28;20032;-78
2021/04/30 05:52:31;;;;;;;15.63;8.48;;;;;;;22.10;46.41;99924.13;5059477;28;20031;-78
2021/04/30 05:54:57;;;;;;;20.38;9.30;;;;;;;22.27;46.21;99939.41;5058014;28;20058;-78
2021/04/30 05:57:23;;;;;;;22.05;10.60;;;;;;;22.17;46.13;99917.59;5073996;28;20035;-78
2021/04/30 05:59:48;;;;;;;15.80;10.63;;;;;;;21.96;46.70;99940.50;5060453;28;20029;-78
2021/04/30 06:02:14;;;;;;;24.27;10.90;;;;;;;22.01;47.12;99938.97;5060574;28;20233;-78
2021/04/30 06:04:39;;;;;;;30.25;10.45;;;;;;;22.44;46.27;99933.31;5061380;28;20407;-78
2021/04/30 06:07:05;;;;;;;25.92;9.52;;;;;;;22.67;46.17;99937.88;5063902;28;20033;-78
2021/04/30 06:09:30;;;;;;;26.90;10.25;;;;;;;22.95;45.45;99935.31;5064770;28;20020;-79
2021/04/30 06:11:56;;;;;;;27.48;10.30;;;;;;;23.13;45.52;99928.91;5063598;28;20390;-79
2021/04/30 06:14:25;;;;;;;21.02;11.18;;;;;;;23.43;44.46;99913.28;5047330;28;20227;-76
2021/04/30 06:16:51;;;;;;;23.48;11.85;;;;;;;23.49;45.09;99916.91;5058612;28;20037;-77
2021/04/30 06:19:16;;;;;;;24.80;12.77;;;;;;;23.60;44.93;99916.06;5056087;28;20234;-76
2021/04/30 06:21:42;;;;;;;26.75;13.93;;;;;;;23.71;44.29;99923.28;5057615;28;20021;-79
2021/04/30 06:24:08;;;;;;;26.30;13.05;;;;;;;23.46;45.88;99920.91;5061397;28;20025;-76
2021/04/30 06:26:33;;;;;;;28.70;20.25;;;;;;;23.72;46.27;99924.13;5060708;28;20128;-76
2021/04/30 06:28:58;;;;;;;39.05;19.92;;;;;;;23.52;46.06;99919.13;5063632;28;20059;-79
2021/04/30 06:31:24;;;;;;;26.08;15.10;;;;;;;22.92;48.09;99924.97;5061568;28;20033;-79
2021/04/30 06:33:50;;;;;;;36.00;14.68;;;;;;;23.33;47.01;99914.97;5061598;28;20055;-76
2021/04/30 06:36:16;;;;;;;34.28;14.73;;;;;;;23.42;46.86;99935.97;5061137;28;20016;-76
2021/04/30 06:38:42;;;;;;;28.92;13.98;;;;;;;23.56;46.23;99910.31;5062700;28;20037;-75
2021/04/30 06:41:08;;;;;;;26.27;14.13;;;;;;;23.20;46.60;99911.50;5061542;28;20041;-77
2021/04/30 06:43:33;;;;;;;21.92;13.20;;;;;;;23.47;46.87;99924.44;5063963;28;20048;-77
2021/04/30 06:45:59;;;;;;;25.90;13.52;;;;;;;23.97;44.96;99918.34;5061315;28;20041;-76
2021/04/30 06:48:24;;;;;;;23.20;13.48;;;;;;;24.01;45.47;99919.50;5061816;28;20033;-78
2021/04/30 06:50:50;;;;;;;25.73;14.05;;;;;;;24.41;44.75;99903.91;5077722;28;20055;-79
2021/04/30 06:53:15;;;;;;;25.92;15.40;;;;;;;24.35;44.45;99910.31;5073956;28;20336;-76
2021/04/30 06:55:41;;;;;;;26.20;15.75;;;;;;;24.40;44.59;99898.75;5059304;28;20214;-78
2021/04/30 06:58:06;;;;;;;28.58;14.55;;;;;;;24.73;43.91;99898.69;5056780;28;20049;-76
2021/04/30 07:00:31;;;;;;;26.40;14.93;;;;;;;24.79;43.02;99886.03;5060634;28;20028;-78
2021/04/30 07:02:57;;;;;;;29.60;15.60;;;;;;;24.72;43.14;99890.81;5059934;28;20037;-79
2021/04/30 07:05:22;;;;;;;31.23;15.98;;;;;;;25.21;42.99;99889.00;5060727;28;20037;-80
2021/04/30 07:07:48;;;;;;;30.35;14.65;;;;;;;25.78;42.31;99897.47;5059536;28;22555;-79
2021/04/30 07:10:13;;;;;;;28.65;13.85;;;;;;;26.27;41.02;99889.19;5058548;28;20033;-76
2021/04/30 07:12:39;;;;;;;29.42;13.82;;;;;;;26.39;39.67;99887.13;5059645;28;20071;-77
2021/04/30 07:15:08;;;;;;;25.15;13.73;;;;;;;26.66;39.32;99897.06;5056695;28;20020;-77
2021/04/30 07:17:34;;;;;;;25.13;13.32;;;;;;;26.61;39.77;99892.41;5056483;28;20041;-72
2021/04/30 07:20:00;;;;;;;23.95;14.02;;;;;;;26.15;41.54;99901.31;5063003;28;20047;-75
2021/04/30 07:22:26;;;;;;;20.85;13.15;;;;;;;26.19;40.93;99897.81;5062637;28;20104;-78
2021/04/30 07:24:51;;;;;;;29.90;14.98;;;;;;;25.17;42.11;99844.53;5062431;28;20032;-79
2021/04/30 07:27:17;;;;;;;29.20;13.07;;;;;;;25.77;41.73;99878.75;5062568;28;20044;-76
2021/04/30 07:29:43;;;;;;;27.42;13.05;;;;;;;26.40;40.17;99890.66;5062833;28;20029;-76
2021/04/30 07:32:09;;;;;;;22.60;10.77;;;;;;;26.70;39.88;99892.72;5061700;28;20033;-77
2021/04/30 07:34:35;;;;;;;23.75;8.48;;;;;;;26.61;38.73;99881.53;5062661;28;20225;-73
2021/04/30 07:37:00;;;;;;;14.20;8.38;;;;;;;26.63;37.70;99882.09;5062149;28;20234;-77
2021/04/30 07:39:26;;;;;;;22.65;8.70;;;;;;;26.92;37.47;99881.69;5062583;28;20329;-73
2021/04/30 07:41:53;;;;;;;20.83;8.63;;;;;;;27.40;36.98;99882.41;5061977;28;20285;-73
2021/04/30 07:44:19;;;;;;;19.45;8.60;;;;;;;27.57;37.01;99880.25;5053653;28;20047;-73
2021/04/30 07:46:46;;;;;;;16.13;9.40;;;;;;;27.59;36.80;99872.66;5062037;28;20242;-73
2021/04/30 07:49:12;;;;;;;22.85;9.85;;;;;;;27.81;35.75;99856.91;5062350;28;20084;-73
2021/04/30 07:51:40;;;;;;;28.42;10.30;;;;;;;28.15;35.85;99862.63;5062025;28;20060;-77
2021/04/30 07:54:06;;;;;;;20.13;9.43;;;;;;;28.25;36.22;99850.94;5061565;28;20025;-77
2021/04/30 07:56:32;;;;;;;21.92;8.57;;;;;;;28.23;36.45;99853.94;5060628;28;20214;-77
2021/04/30 07:58:57;;;;;;;20.27;9.07;;;;;;;28.27;36.38;99856.91;5061794;28;20047;-74
2021/04/30 08:01:23;;;;;;;20.25;9.00;;;;;;;28.12;36.56;99855.00;5061834;28;20017;-76
2021/04/30 08:03:48;;;;;;;13.70;7.68;;;;;;;28.17;35.91;99859.63;5062190;28;20060;-72
2021/04/30 08:06:14;;;;;;;27.77;8.45;;;;;;;28.24;35.85;99868.34;5061652;28;20249;-78
2021/04/30 08:08:40;;;;;;;21.55;6.93;;;;;;;28.50;35.12;99869.09;5062550;28;20333;-77
2021/04/30 08:11:07;;;;;;;16.27;6.10;;;;;;;28.72;34.27;99864.13;5061688;28;20021;-77
2021/04/30 08:13:36;;;;;;;14.70;6.20;;;;;;;28.81;34.12;99867.09;5060249;28;20072;-76
2021/04/30 08:16:03;;;;;;;14.80;7.50;;;;;;;28.83;34.54;99859.44;5061880;28;20297;-72
2021/04/30 08:18:28;;;;;;;21.98;6.80;;;;;;;28.86;34.98;99867.09;5061943;28;20056;-77
2021/04/30 08:20:54;;;;;;;16.92;7.13;;;;;;;28.90;34.89;99868.16;5061607;28;20112;-73
2021/04/30 08:23:20;;;;;;;50.05;9.98;;;;;;;29.05;35.43;99862.63;5061870;28;20191;-77
2021/04/30 08:25:45;;;;;;;18.77;7.85;;;;;;;29.17;35.25;99867.78;5061938;28;20230;-77
2021/04/30 08:28:10;;;;;;;16.13;7.18;;;;;;;29.31;34.90;99860.59;5061585;28;20294;-72
2021/04/30 08:30:36;;;;;;;16.27;7.07;;;;;;;29.44;34.50;99842.81;5062155;28;20028;-73
2021/04/30 08:33:01;;;;;;;17.05;6.50;;;;;;;29.60;33.56;99840.78;5061484;28;20060;-73
2021/04/30 08:35:27;;;;;;;17.70;8.15;;;;;;;29.60;34.21;99844.34;5061817;28;20025;-77
2021/04/30 08:37:52;;;;;;;16.58;8.73;;;;;;;29.49;34.48;99840.88;5061230;28;20049;-73
2021/04/30 08:40:18;;;;;;;25.77;9.77;;;;;;;29.01;36.20;99830.75;5061707;28;20037;-74
2021/04/30 08:42:44;;;;;;;22.73;10.35;;;;;;;28.63;37.62;99835.81;5061397;28;20032;-76
2021/04/30 08:45:14;;;;;;;20.25;7.88;;;;;;;28.64;36.75;99839.38;5061610;28;20327;-74
2021/04/30 08:47:41;;;;;;;18.27;7.28;;;;;;;28.71;35.91;99853.50;5061345;28;20044;-73
2021/04/30 08:50:07;;;;;;;18.35;7.07;;;;;;;28.83;35.28;99843.09;5061441;28;20052;-77
2021/04/30 08:52:33;;;;;;;14.25;7.25;;;;;;;28.99;34.68;99841.94;5061603;28;20041;-77
2021/04/30 08:55:04;;;;;;;18.10;7.82;;;;;;;29.24;33.98;99827.38;5063976;28;20067;-77
2021/04/30 08:57:30;;;;;;;18.48;7.55;;;;;;;29.30;33.97;99839.06;5061493;28;20108;-78
2021/04/30 08:59:58;;;;;;;19.58;7.75;;;;;;;28.51;35.09;99829.88;5061589;28;20028;-73
2021/04/30 09:02:35;;;;;;;15.38;7.30;;;;;;;28.50;35.69;99826.34;5061176;28;20086;-73
2021/04/30 09:05:00;;;;;;;16.70;7.38;;;;;;;27.94;36.44;99820.16;5061917;28;20219;-72
2021/04/30 09:07:26;;;;;;;15.77;7.47;;;;;;;27.57;37.27;99807.63;5067575;28;20058;-77
2021/04/30 09:10:12;;;;;;;15.77;6.80;;;;;;;27.39;37.38;99813.63;5080399;28;20040;-73
2021/04/30 09:12:39;;;;;;;18.35;6.75;;;;;;;27.81;36.68;99805.22;5070538;28;20068;-77
2021/04/30 09:15:07;;;;;;;14.30;6.90;;;;;;;28.05;36.80;99791.84;5067122;28;20021;-77
2021/04/30 09:17:34;;;;;;;14.90;7.68;;;;;;;28.19;37.69;99786.66;5064877;28;20075;-73
2021/04/30 09:20:02;;;;;;;16.60;6.68;;;;;;;28.15;35.94;99775.50;5065245;28;20025;-73
2021/04/30 09:22:37;;;;;;;18.13;6.55;;;;;;;27.99;36.63;99774.69;5065029;28;20025;-73
2021/04/30 09:25:13;;;;;;;15.73;7.20;;;;;;;27.86;38.36;99769.00;5063740;28;20232;-72
2021/04/30 09:27:46;;;;;;;13.80;6.85;;;;;;;27.69;37.85;99763.06;5065010;28;20206;-73
2021/04/30 09:30:22;;;;;;;10.68;6.50;;;;;;;27.71;37.48;99771.75;5065109;28;20033;-76
2021/04/30 09:33:12;;;;;;;15.15;6.72;;;;;;;28.05;35.83;99774.69;5063536;28;20056;-73
2021/04/30 09:35:47;;;;;;;15.75;6.80;;;;;;;28.17;35.58;99767.06;5062392;28;20033;-73
2021/04/30 09:38:25;;;;;;;15.98;6.70;;;;;;;28.14;37.04;99757.53;5064904;28;20067;-73
2021/04/30 09:41:11;;;;;;;19.92;7.38;;;;;;;28.17;37.56;99756.97;5065110;28;20055;-77
2021/04/30 09:43:42;;;;;;;19.95;6.85;;;;;;;28.18;38.03;99749.63;5063101;28;20037;-77
2021/04/30 09:46:28;;;;;;;14.75;6.20;;;;;;;28.05;37.43;99753.72;5064292;28;20088;-75
2021/04/30 09:49:18;;;;;;;17.38;6.13;;;;;;;27.79;37.94;99752.97;5060968;28;20277;-77
2021/04/30 09:51:53;;;;;;;20.92;6.80;;;;;;;27.75;37.34;99746.44;5063670;28;20092;-73
2021/04/30 09:54:21;;;;;;;17.10;6.57;;;;;;;27.80;38.10;99742.91;5078286;28;20032;-73
2021/04/30 09:56:48;;;;;;;24.38;7.28;;;;;;;27.90;37.67;99732.00;5079389;28;20056;-72
2021/04/30 09:59:24;;;;;;;13.20;6.03;;;;;;;27.92;37.38;99736.06;5063631;28;20052;-72
2021/04/30 10:02:13;;;;;;;21.17;6.45;;;;;;;28.01;37.38;99732.78;5060686;28;20389;-77
2021/04/30 10:04:42;;;;;;;16.15;5.97;;;;;;;28.12;36.67;99726.25;5058446;28;20047;-74
2021/04/30 10:07:08;;;;;;;21.20;6.53;;;;;;;28.09;36.58;99729.50;5061612;28;20051;-73
2021/04/30 10:09:35;;;;;;;12.35;5.88;;;;;;;27.51;37.07;99729.84;5078653;28;20033;-76
2021/04/30 10:12:21;;;;;;;20.05;6.63;;;;;;;27.49;38.09;99720.34;5062695;28;20083;-73
2021/04/30 10:14:47;;;;;;;13.65;6.05;;;;;;;27.47;37.62;99720.63;5063470;28;20092;-76
2021/04/30 10:17:14;;;;;;;11.77;5.72;;;;;;;27.33;37.11;99717.63;5059870;28;20070;-76
2021/04/30 10:19:44;;;;;;;13.82;5.38;;;;;;;27.15;39.31;99715.47;5064116;28;20257;-76
2021/04/30 10:22:22;;;;;;;19.75;5.57;;;;;;;27.25;37.52;99714.66;5063877;28;20086;-73
2021/04/30 10:24:53;;;;;;;20.27;5.60;;;;;;;26.94;36.39;99709.16;5063794;28;20044;-76
2021/04/30 10:27:26;;;;;;;15.13;5.75;;;;;;;27.00;37.65;99710.00;5062280;28;20033;-73
2021/04/30 10:30:30;;;;;;;10.68;4.22;;;;;;;27.12;37.10;99712.47;5063395;28;20032;-76
2021/04/30 10:33:17;;;;;;;13.40;4.63;;;;;;;27.07;37.92;99688.84;5060763;28;20115;-73
2021/04/30 10:35:49;;;;;;;12.60;4.40;;;;;;;27.21;36.52;99706.22;5061534;28;20020;-76
2021/04/30 10:38:22;;;;;;;17.40;5.10;;;;;;;27.28;37.43;99704.06;5063027;28;20033;-73
2021/04/30 10:41:06;;;;;;;15.50;5.28;;;;;;;27.48;35.51;99702.41;5061386;28;20068;-72
2021/04/30 10:43:32;;;;;;;;;;;;;;;27.55;34.80;99698.31;5055423;28;20048;-77
2021/04/30 10:45:59;;;;;;;19.08;4.57;;;;;;;27.79;34.43;99682.22;5058573;28;19912;-74
2021/04/30 10:48:25;;;;;;;13.43;3.92;;;;;;;28.02;33.39;99685.41;5061403;28;20033;-73
2021/04/30 10:50:51;;;;;;;13.90;4.70;;;;;;;28.07;33.64;99679.97;5076348;28;20024;-74
2021/04/30 10:53:25;;;;;;;14.60;4.68;;;;;;;28.04;35.10;99684.06;5060058;28;20025;-73
2021/04/30 10:55:54;;;;;;;14.10;4.93;;;;;;;27.78;35.08;99677.88;5060636;28;20044;-76
2021/04/30 10:58:37;;;;;;;14.60;5.20;;;;;;;27.74;35.33;99662.38;5076519;28;20037;-76
2021/04/30 11:01:24;;;;;;;22.60;5.32;;;;;;;27.94;35.78;99675.94;5060255;28;20032;-73
2021/04/30 11:04:08;;;;;;;17.08;5.05;;;;;;;28.04;36.43;99675.88;5060275;28;20033;-76
2021/04/30 11:06:40;;;;;;;18.92;5.18;;;;;;;27.85;36.08;99674.88;5061159;28;20040;-76
2021/04/30 11:09:31;;;;;;;14.60;4.78;;;;;;;27.89;36.26;99668.59;5060056;28;20044;-77
2021/04/30 11:12:02;;;;;;;20.40;5.18;;;;;;;27.82;39.63;99667.25;5050022;28;20048;-76
2021/04/30 11:14:31;;;;;;;16.70;4.97;;;;;;;27.88;36.37;99649.81;5075295;28;20039;-77
2021/04/30 11:17:00;;;;;;;14.18;4.70;;;;;;;27.88;36.85;99657.97;5062612;28;20074;-73
2021/04/30 11:19:29;;;;;;;16.35;4.57;;;;;;;27.89;37.57;99662.34;5060806;28;20036;-76
2021/04/30 11:21:57;;;;;;;17.60;4.60;;;;;;;27.76;37.54;99673.81;5073118;28;20047;-72
2021/04/30 11:24:28;;;;;;;10.20;4.43;;;;;;;27.86;37.54;99677.31;5059628;28;20135;-76
2021/04/30 11:27:34;;;;;;;10.95;4.05;;;;;;;27.78;37.26;99677.88;5060640;28;20100;-73